Rosette, Utah
Current Conditions -  °F | °C
As of 9:58 AM on Friday 21 Nov 2014 (Local Time) from KU16 Reporting Station
Clear Clear  
Wind Chill: 34°   Ceiling: Unl
Heat Index: 34°   Visibility: 7mi
Dew Point: 25°   Wind: 0mph
Humidity: 70%   Direction: NA
Pressure: 30.04"   Gusts: NA
Location:  41.7631°N, 113.334°W
Report Text: KU16 211658Z AUTO 00000KT 7SM CLR 01/M04 A3004 RMK AO2 SLP797 T00111039 TSNO $
Loading
Personal Weather Stations






























Interactive Weather Map New forecast layout! Learn more

10-Day Weather Forecast

Advertisements
Track Severe Weather on mobile